KHDN/HDN METAR and TAF weather

Enter ICAO airport designator
Station Type Date Time Source
KHDN METAR 2022/01/26 19:56 UTC NOAA

KHDN 261956Z AUTO 00000KT 10SM CLR M02/M13 A3019 RMK AO2 SLP288 T10171128 FZRANO


Station Type Date Time Source
KHDN Decoded METAR 2022/01/26 19:56 UTC NOAA

Hayden, Yampa Valley Airport, CO, United States (KHDN) 40-29N 107-13W
Jan 26, 2022 - 02:56 PM EST / 2022.01.26 1956 UTC
Wind: Calm:0
Visibility: 10 mile(s):0
Sky conditions: clear
Temperature: 28.9 F (-1.7 C)
Dew Point: 9.0 F (-12.8 C)
Relative Humidity: 42%
Pressure (altimeter): 30.19 in. Hg (1022 hPa)
ob: KHDN 261956Z AUTO 00000KT 10SM CLR M02/M13 A3019 RMK AO2 SLP288 T10171128 FZRANO
cycle: 20

Station Type Date Time Source
KHDN TAF 2022/01/26 18:40 UTC NOAA

TAF KHDN 261738Z 2618/2718 11010KT P6SM BKN250
FM270300 11005KT P6SM OVC100
FM271200 26005KT 5SM -SHSN BR OVC030

Example: see airport list